sensor_id;sensor_type;location;lat;lon;timestamp;P1;durP1;ratioP1;P2;durP2;ratioP2
21448;SDS011;10885;52.830;13.788;2023-04-25T05:14:24;9.38;;;4.57;;
21448;SDS011;10885;52.830;13.788;2023-04-25T05:20:05;9.10;;;3.55;;
21448;SDS011;10885;52.830;13.788;2023-04-25T05:31:31;10.02;;;3.85;;
21448;SDS011;10885;52.830;13.788;2023-04-25T05:36:56;10.02;;;4.30;;
21448;SDS011;10885;52.830;13.788;2023-04-25T05:42:18;6.05;;;4.20;;
21448;SDS011;10885;52.830;13.788;2023-04-25T05:47:51;11.52;;;4.32;;
21448;SDS011;10885;52.830;13.788;2023-04-25T05:53:19;10.63;;;4.22;;
21448;SDS011;10885;52.830;13.788;2023-04-25T05:58:47;10.90;;;4.20;;
21448;SDS011;10885;52.830;13.788;2023-04-25T06:04:09;8.50;;;3.55;;
21448;SDS011;10885;52.830;13.788;2023-04-25T06:09:32;9.10;;;3.70;;
21448;SDS011;10885;52.830;13.788;2023-04-25T06:20:14;7.77;;;3.70;;
21448;SDS011;10885;52.830;13.788;2023-04-25T06:25:35;8.30;;;3.97;;
21448;SDS011;10885;52.830;13.788;2023-04-25T06:30:58;7.65;;;4.30;;
21448;SDS011;10885;52.830;13.788;2023-04-25T06:36:19;9.63;;;4.30;;
21448;SDS011;10885;52.830;13.788;2023-04-25T06:41:48;8.07;;;3.63;;
21448;SDS011;10885;52.830;13.788;2023-04-25T06:47:41;7.82;;;3.83;;
21448;SDS011;10885;52.830;13.788;2023-04-25T06:53:02;10.05;;;4.13;;
21448;SDS011;10885;52.830;13.788;2023-04-25T06:58:24;12.00;;;4.03;;
21448;SDS011;10885;52.830;13.788;2023-04-25T07:04:12;6.22;;;3.35;;
21448;SDS011;10885;52.830;13.788;2023-04-25T07:09:39;6.03;;;3.30;;
21448;SDS011;10885;52.830;13.788;2023-04-25T07:15:00;13.32;;;3.88;;
21448;SDS011;10885;52.830;13.788;2023-04-25T07:20:26;8.88;;;3.72;;
21448;SDS011;10885;52.830;13.788;2023-04-25T07:25:50;7.18;;;3.70;;
21448;SDS011;10885;52.830;13.788;2023-04-25T07:31:14;7.10;;;3.22;;
21448;SDS011;10885;52.830;13.788;2023-04-25T07:36:38;10.95;;;3.92;;
21448;SDS011;10885;52.830;13.788;2023-04-25T07:41:59;12.32;;;3.75;;
21448;SDS011;10885;52.830;13.788;2023-04-25T07:47:23;8.32;;;4.95;;
21448;SDS011;10885;52.830;13.788;2023-04-25T07:52:45;8.05;;;4.07;;
21448;SDS011;10885;52.830;13.788;2023-04-25T07:58:16;7.60;;;3.80;;
21448;SDS011;10885;52.830;13.788;2023-04-25T08:03:44;9.43;;;3.83;;
21448;SDS011;10885;52.830;13.788;2023-04-25T08:09:15;7.20;;;3.83;;
21448;SDS011;10885;52.830;13.788;2023-04-25T08:14:36;15.38;;;5.43;;
21448;SDS011;10885;52.830;13.788;2023-04-25T08:19:59;12.60;;;4.30;;
21448;SDS011;10885;52.830;13.788;2023-04-25T08:25:24;14.23;;;4.05;;
21448;SDS011;10885;52.830;13.788;2023-04-25T08:30:45;20.42;;;5.07;;
21448;SDS011;10885;52.830;13.788;2023-04-25T08:36:08;18.98;;;4.70;;
21448;SDS011;10885;52.830;13.788;2023-04-25T08:41:30;15.88;;;4.10;;
21448;SDS011;10885;52.830;13.788;2023-04-25T08:46:51;21.90;;;4.32;;
21448;SDS011;10885;52.830;13.788;2023-04-25T08:52:23;15.55;;;4.35;;
21448;SDS011;10885;52.830;13.788;2023-04-25T08:57:48;18.15;;;5.28;;
21448;SDS011;10885;52.830;13.788;2023-04-25T09:03:11;20.55;;;4.40;;
21448;SDS011;10885;52.830;13.788;2023-04-25T09:08:32;13.32;;;3.42;;
21448;SDS011;10885;52.830;13.788;2023-04-25T09:14:09;19.35;;;3.97;;
21448;SDS011;10885;52.830;13.788;2023-04-25T09:19:54;22.55;;;4.32;;
21448;SDS011;10885;52.830;13.788;2023-04-25T09:25:25;16.38;;;4.03;;
21448;SDS011;10885;52.830;13.788;2023-04-25T09:30:46;14.23;;;3.90;;
21448;SDS011;10885;52.830;13.788;2023-04-25T09:36:14;14.27;;;3.40;;
21448;SDS011;10885;52.830;13.788;2023-04-25T09:41:53;10.80;;;3.22;;
21448;SDS011;10885;52.830;13.788;2023-04-25T09:47:16;12.90;;;4.18;;
21448;SDS011;10885;52.830;13.788;2023-04-25T09:52:42;13.30;;;3.65;;
21448;SDS011;10885;52.830;13.788;2023-04-25T09:58:16;12.02;;;3.50;;
21448;SDS011;10885;52.830;13.788;2023-04-25T10:03:38;11.38;;;3.25;;
21448;SDS011;10885;52.830;13.788;2023-04-25T10:09:12;9.27;;;2.80;;
21448;SDS011;10885;52.830;13.788;2023-04-25T10:14:35;8.80;;;2.40;;
21448;SDS011;10885;52.830;13.788;2023-04-25T10:19:56;8.63;;;2.35;;
21448;SDS011;10885;52.830;13.788;2023-04-25T10:25:18;11.45;;;2.78;;
21448;SDS011;10885;52.830;13.788;2023-04-25T10:30:56;14.82;;;3.15;;
21448;SDS011;10885;52.830;13.788;2023-04-25T10:36:30;9.80;;;2.35;;
21448;SDS011;10885;52.830;13.788;2023-04-25T10:41:57;11.32;;;2.65;;
21448;SDS011;10885;52.830;13.788;2023-04-25T10:47:18;14.93;;;3.22;;
21448;SDS011;10885;52.830;13.788;2023-04-25T10:52:55;9.52;;;2.88;;
21448;SDS011;10885;52.830;13.788;2023-04-25T10:58:35;12.93;;;3.20;;
21448;SDS011;10885;52.830;13.788;2023-04-25T11:03:57;9.77;;;2.58;;
21448;SDS011;10885;52.830;13.788;2023-04-25T11:09:19;12.68;;;2.55;;
21448;SDS011;10885;52.830;13.788;2023-04-25T11:14:40;9.73;;;2.55;;
21448;SDS011;10885;52.830;13.788;2023-04-25T11:20:01;7.47;;;2.47;;
21448;SDS011;10885;52.830;13.788;2023-04-25T11:25:28;8.55;;;2.08;;
21448;SDS011;10885;52.830;13.788;2023-04-25T11:30:50;6.65;;;2.20;;
21448;SDS011;10885;52.830;13.788;2023-04-25T11:36:11;8.35;;;2.50;;
21448;SDS011;10885;52.830;13.788;2023-04-25T11:41:32;7.85;;;1.95;;
21448;SDS011;10885;52.830;13.788;2023-04-25T11:46:53;10.93;;;2.40;;
21448;SDS011;10885;52.830;13.788;2023-04-25T11:52:14;9.23;;;2.97;;
21448;SDS011;10885;52.830;13.788;2023-04-25T11:57:35;8.95;;;2.50;;
21448;SDS011;10885;52.830;13.788;2023-04-25T12:02:58;8.57;;;2.20;;
21448;SDS011;10885;52.830;13.788;2023-04-25T12:08:19;11.65;;;2.35;;
21448;SDS011;10885;52.830;13.788;2023-04-25T12:13:40;4.85;;;1.98;;
21448;SDS011;10885;52.830;13.788;2023-04-25T12:19:05;10.98;;;2.10;;
21448;SDS011;10885;52.830;13.788;2023-04-25T12:24:26;9.73;;;2.55;;
21448;SDS011;10885;52.830;13.788;2023-04-25T12:29:51;8.73;;;2.90;;
21448;SDS011;10885;52.830;13.788;2023-04-25T12:35:17;12.98;;;2.60;;
21448;SDS011;10885;52.830;13.788;2023-04-25T12:40:38;7.05;;;2.38;;
21448;SDS011;10885;52.830;13.788;2023-04-25T12:45:58;9.07;;;2.13;;
21448;SDS011;10885;52.830;13.788;2023-04-25T12:51:20;13.25;;;2.20;;
21448;SDS011;10885;52.830;13.788;2023-04-25T13:02:02;7.97;;;1.90;;
21448;SDS011;10885;52.830;13.788;2023-04-25T13:07:23;8.18;;;2.45;;
21448;SDS011;10885;52.830;13.788;2023-04-25T13:18:06;7.13;;;2.05;;
21448;SDS011;10885;52.830;13.788;2023-04-25T13:23:28;8.10;;;2.97;;
21448;SDS011;10885;52.830;13.788;2023-04-25T13:28:50;9.43;;;2.38;;
21448;SDS011;10885;52.830;13.788;2023-04-25T13:34:11;7.10;;;2.67;;
21448;SDS011;10885;52.830;13.788;2023-04-25T13:39:33;8.70;;;2.30;;
21448;SDS011;10885;52.830;13.788;2023-04-25T13:44:54;13.70;;;2.33;;
21448;SDS011;10885;52.830;13.788;2023-04-25T13:50:15;8.65;;;2.60;;
21448;SDS011;10885;52.830;13.788;2023-04-25T13:55:37;7.72;;;2.00;;
21448;SDS011;10885;52.830;13.788;2023-04-25T14:00:59;6.57;;;2.42;;
21448;SDS011;10885;52.830;13.788;2023-04-25T14:06:20;8.82;;;2.65;;
21448;SDS011;10885;52.830;13.788;2023-04-25T14:11:43;14.52;;;2.45;;
21448;SDS011;10885;52.830;13.788;2023-04-25T14:22:25;12.53;;;2.60;;
21448;SDS011;10885;52.830;13.788;2023-04-25T14:27:46;12.18;;;2.97;;
21448;SDS011;10885;52.830;13.788;2023-04-25T14:33:10;13.60;;;2.90;;
21448;SDS011;10885;52.830;13.788;2023-04-25T14:38:31;5.30;;;1.88;;
21448;SDS011;10885;52.830;13.788;2023-04-25T14:43:52;6.90;;;2.65;;
21448;SDS011;10885;52.830;13.788;2023-04-25T14:49:13;9.10;;;2.40;;
21448;SDS011;10885;52.830;13.788;2023-04-25T14:54:35;8.18;;;2.05;;
21448;SDS011;10885;52.830;13.788;2023-04-25T14:59:56;6.25;;;2.25;;
21448;SDS011;10885;52.830;13.788;2023-04-25T15:10:38;5.25;;;2.00;;
21448;SDS011;10885;52.830;13.788;2023-04-25T15:21:20;6.28;;;1.70;;
21448;SDS011;10885;52.830;13.788;2023-04-25T15:26:41;8.13;;;1.80;;
21448;SDS011;10885;52.830;13.788;2023-04-25T15:32:02;4.72;;;1.30;;
21448;SDS011;10885;52.830;13.788;2023-04-25T15:37:24;6.57;;;1.77;;
21448;SDS011;10885;52.830;13.788;2023-04-25T15:48:12;5.72;;;1.30;;
21448;SDS011;10885;52.830;13.788;2023-04-25T15:53:33;4.68;;;1.60;;
21448;SDS011;10885;52.830;13.788;2023-04-25T16:04:15;4.67;;;1.43;;
21448;SDS011;10885;52.830;13.788;2023-04-25T16:09:36;3.78;;;1.23;;
21448;SDS011;10885;52.830;13.788;2023-04-25T16:20:18;5.88;;;1.50;;
21448;SDS011;10885;52.830;13.788;2023-04-25T16:25:40;8.18;;;1.25;;
21448;SDS011;10885;52.830;13.788;2023-04-25T16:31:02;6.22;;;1.60;;
21448;SDS011;10885;52.830;13.788;2023-04-25T16:36:24;7.00;;;1.45;;
21448;SDS011;10885;52.830;13.788;2023-04-25T16:41:49;4.50;;;1.50;;
21448;SDS011;10885;52.830;13.788;2023-04-25T16:47:10;6.47;;;1.65;;
21448;SDS011;10885;52.830;13.788;2023-04-25T16:52:33;7.60;;;1.00;;
21448;SDS011;10885;52.830;13.788;2023-04-25T16:57:54;5.45;;;1.40;;
21448;SDS011;10885;52.830;13.788;2023-04-25T17:08:36;4.97;;;1.60;;
21448;SDS011;10885;52.830;13.788;2023-04-25T17:19:18;6.30;;;1.25;;
21448;SDS011;10885;52.830;13.788;2023-04-25T17:24:38;5.80;;;1.35;;
21448;SDS011;10885;52.830;13.788;2023-04-25T17:30:00;5.97;;;1.70;;
21448;SDS011;10885;52.830;13.788;2023-04-25T17:35:23;5.82;;;1.45;;
21448;SDS011;10885;52.830;13.788;2023-04-25T17:40:45;5.30;;;1.75;;
21448;SDS011;10885;52.830;13.788;2023-04-25T17:46:07;5.20;;;1.88;;
21448;SDS011;10885;52.830;13.788;2023-04-25T17:51:28;4.35;;;1.20;;
21448;SDS011;10885;52.830;13.788;2023-04-25T17:56:50;5.45;;;1.50;;
21448;SDS011;10885;52.830;13.788;2023-04-25T18:02:11;7.20;;;1.48;;
21448;SDS011;10885;52.830;13.788;2023-04-25T18:07:36;2.53;;;1.27;;
21448;SDS011;10885;52.830;13.788;2023-04-25T18:12:57;8.18;;;1.70;;
21448;SDS011;10885;52.830;13.788;2023-04-25T18:18:18;4.95;;;1.50;;
21448;SDS011;10885;52.830;13.788;2023-04-25T18:23:44;3.92;;;1.30;;
21448;SDS011;10885;52.830;13.788;2023-04-25T18:29:07;10.70;;;1.67;;
21448;SDS011;10885;52.830;13.788;2023-04-25T18:34:30;5.25;;;1.50;;
21448;SDS011;10885;52.830;13.788;2023-04-25T18:39:52;6.75;;;1.45;;
21448;SDS011;10885;52.830;13.788;2023-04-25T18:45:14;4.85;;;1.30;;
21448;SDS011;10885;52.830;13.788;2023-04-25T18:50:35;5.05;;;1.27;;
21448;SDS011;10885;52.830;13.788;2023-04-25T18:55:58;4.72;;;1.48;;
21448;SDS011;10885;52.830;13.788;2023-04-25T19:01:23;8.88;;;2.13;;
21448;SDS011;10885;52.830;13.788;2023-04-25T19:06:45;2.50;;;1.42;;
21448;SDS011;10885;52.830;13.788;2023-04-25T19:12:06;4.63;;;1.35;;
21448;SDS011;10885;52.830;13.788;2023-04-25T19:17:28;6.65;;;1.77;;
21448;SDS011;10885;52.830;13.788;2023-04-25T19:22:51;4.88;;;1.50;;
21448;SDS011;10885;52.830;13.788;2023-04-25T19:28:13;9.15;;;1.50;;
21448;SDS011;10885;52.830;13.788;2023-04-25T19:33:35;4.78;;;1.88;;
21448;SDS011;10885;52.830;13.788;2023-04-25T19:38:56;6.03;;;1.20;;
21448;SDS011;10885;52.830;13.788;2023-04-25T19:44:23;3.97;;;1.50;;
21448;SDS011;10885;52.830;13.788;2023-04-25T19:49:44;4.60;;;1.27;;
21448;SDS011;10885;52.830;13.788;2023-04-25T19:55:06;6.25;;;1.83;;
21448;SDS011;10885;52.830;13.788;2023-04-25T20:00:28;8.77;;;1.50;;
21448;SDS011;10885;52.830;13.788;2023-04-25T20:05:49;1.73;;;1.58;;
21448;SDS011;10885;52.830;13.788;2023-04-25T20:11:11;7.63;;;1.70;;
21448;SDS011;10885;52.830;13.788;2023-04-25T20:16:32;6.30;;;1.50;;
21448;SDS011;10885;52.830;13.788;2023-04-25T20:21:53;8.55;;;1.45;;
21448;SDS011;10885;52.830;13.788;2023-04-25T20:27:15;5.38;;;1.70;;
21448;SDS011;10885;52.830;13.788;2023-04-25T20:32:36;9.25;;;1.65;;
21448;SDS011;10885;52.830;13.788;2023-04-25T20:37:57;6.53;;;1.70;;
21448;SDS011;10885;52.830;13.788;2023-04-25T20:43:18;9.32;;;1.70;;
21448;SDS011;10885;52.830;13.788;2023-04-25T20:48:39;5.28;;;2.08;;
21448;SDS011;10885;52.830;13.788;2023-04-25T20:54:00;10.52;;;1.60;;
21448;SDS011;10885;52.830;13.788;2023-04-25T20:59:25;7.57;;;1.52;;
21448;SDS011;10885;52.830;13.788;2023-04-25T21:04:47;8.75;;;1.85;;
21448;SDS011;10885;52.830;13.788;2023-04-25T21:10:08;5.65;;;1.50;;
21448;SDS011;10885;52.830;13.788;2023-04-25T21:15:29;6.00;;;1.50;;
21448;SDS011;10885;52.830;13.788;2023-04-25T21:20:51;5.75;;;1.77;;
